sensor_id;sensor_type;location;lat;lon;timestamp;P1;durP1;ratioP1;P2;durP2;ratioP2
24483;SDS011;12643;51.620;7.548;2022-10-16T00:01:35;4.72;;;3.28;;
24483;SDS011;12643;51.620;7.548;2022-10-16T00:04:03;6.32;;;3.47;;
24483;SDS011;12643;51.620;7.548;2022-10-16T00:06:31;6.00;;;3.03;;
24483;SDS011;12643;51.620;7.548;2022-10-16T00:09:02;6.15;;;3.65;;
24483;SDS011;12643;51.620;7.548;2022-10-16T00:11:30;5.03;;;3.17;;
24483;SDS011;12643;51.620;7.548;2022-10-16T00:14:02;3.35;;;2.63;;
24483;SDS011;12643;51.620;7.548;2022-10-16T00:16:33;9.73;;;3.80;;
24483;SDS011;12643;51.620;7.548;2022-10-16T00:19:01;5.82;;;3.17;;
24483;SDS011;12643;51.620;7.548;2022-10-16T00:21:30;4.93;;;3.03;;
24483;SDS011;12643;51.620;7.548;2022-10-16T00:24:00;4.07;;;3.30;;
24483;SDS011;12643;51.620;7.548;2022-10-16T00:26:31;4.15;;;3.40;;
24483;SDS011;12643;51.620;7.548;2022-10-16T00:29:00;6.40;;;3.60;;
24483;SDS011;12643;51.620;7.548;2022-10-16T00:31:28;4.53;;;3.25;;
24483;SDS011;12643;51.620;7.548;2022-10-16T00:33:56;3.83;;;2.83;;
24483;SDS011;12643;51.620;7.548;2022-10-16T00:36:25;5.85;;;3.10;;
24483;SDS011;12643;51.620;7.548;2022-10-16T00:38:54;4.32;;;3.30;;
24483;SDS011;12643;51.620;7.548;2022-10-16T00:41:26;4.65;;;3.17;;
24483;SDS011;12643;51.620;7.548;2022-10-16T00:43:55;5.65;;;3.30;;
24483;SDS011;12643;51.620;7.548;2022-10-16T00:46:26;4.20;;;3.00;;
24483;SDS011;12643;51.620;7.548;2022-10-16T00:48:57;3.22;;;2.55;;
24483;SDS011;12643;51.620;7.548;2022-10-16T00:51:30;4.05;;;2.50;;
24483;SDS011;12643;51.620;7.548;2022-10-16T00:53:59;6.03;;;3.08;;
24483;SDS011;12643;51.620;7.548;2022-10-16T00:56:30;2.88;;;2.55;;
24483;SDS011;12643;51.620;7.548;2022-10-16T00:58:59;3.80;;;2.40;;
24483;SDS011;12643;51.620;7.548;2022-10-16T01:01:28;3.53;;;2.67;;
24483;SDS011;12643;51.620;7.548;2022-10-16T01:03:56;4.32;;;2.58;;
24483;SDS011;12643;51.620;7.548;2022-10-16T01:06:24;6.43;;;3.13;;
24483;SDS011;12643;51.620;7.548;2022-10-16T01:09:03;3.00;;;2.60;;
24483;SDS011;12643;51.620;7.548;2022-10-16T01:11:41;4.38;;;2.78;;
24483;SDS011;12643;51.620;7.548;2022-10-16T01:14:18;5.47;;;2.38;;
24483;SDS011;12643;51.620;7.548;2022-10-16T01:16:52;4.22;;;2.95;;
24483;SDS011;12643;51.620;7.548;2022-10-16T01:19:26;6.50;;;3.22;;
24483;SDS011;12643;51.620;7.548;2022-10-16T01:22:05;4.82;;;2.67;;
24483;SDS011;12643;51.620;7.548;2022-10-16T01:24:37;4.18;;;2.45;;
24483;SDS011;12643;51.620;7.548;2022-10-16T01:27:09;4.93;;;2.60;;
24483;SDS011;12643;51.620;7.548;2022-10-16T01:29:40;5.93;;;3.05;;
24483;SDS011;12643;51.620;7.548;2022-10-16T01:32:17;7.72;;;3.13;;
24483;SDS011;12643;51.620;7.548;2022-10-16T01:34:50;3.03;;;2.35;;
24483;SDS011;12643;51.620;7.548;2022-10-16T01:37:26;4.57;;;2.40;;
24483;SDS011;12643;51.620;7.548;2022-10-16T01:40:00;6.05;;;3.03;;
24483;SDS011;12643;51.620;7.548;2022-10-16T01:42:33;2.45;;;2.22;;
24483;SDS011;12643;51.620;7.548;2022-10-16T01:45:04;5.25;;;2.78;;
24483;SDS011;12643;51.620;7.548;2022-10-16T01:47:33;8.02;;;2.90;;
24483;SDS011;12643;51.620;7.548;2022-10-16T01:50:03;2.85;;;2.17;;
24483;SDS011;12643;51.620;7.548;2022-10-16T01:52:34;2.95;;;2.22;;
24483;SDS011;12643;51.620;7.548;2022-10-16T01:55:06;3.85;;;2.20;;
24483;SDS011;12643;51.620;7.548;2022-10-16T01:57:37;4.78;;;2.40;;
24483;SDS011;12643;51.620;7.548;2022-10-16T02:00:10;3.58;;;2.35;;
24483;SDS011;12643;51.620;7.548;2022-10-16T02:02:40;3.55;;;2.45;;
24483;SDS011;12643;51.620;7.548;2022-10-16T02:05:12;7.60;;;2.40;;
24483;SDS011;12643;51.620;7.548;2022-10-16T02:07:45;3.88;;;2.72;;
24483;SDS011;12643;51.620;7.548;2022-10-16T02:10:13;3.72;;;2.17;;
24483;SDS011;12643;51.620;7.548;2022-10-16T02:12:44;8.07;;;2.63;;
24483;SDS011;12643;51.620;7.548;2022-10-16T02:15:16;5.88;;;2.20;;
24483;SDS011;12643;51.620;7.548;2022-10-16T02:17:44;4.20;;;2.00;;
24483;SDS011;12643;51.620;7.548;2022-10-16T02:20:12;5.18;;;2.40;;
24483;SDS011;12643;51.620;7.548;2022-10-16T02:22:40;4.90;;;2.22;;
24483;SDS011;12643;51.620;7.548;2022-10-16T02:25:12;4.07;;;1.95;;
24483;SDS011;12643;51.620;7.548;2022-10-16T02:27:49;4.47;;;2.40;;
24483;SDS011;12643;51.620;7.548;2022-10-16T02:30:22;4.43;;;2.45;;
24483;SDS011;12643;51.620;7.548;2022-10-16T02:32:55;5.20;;;2.35;;
24483;SDS011;12643;51.620;7.548;2022-10-16T02:35:25;3.55;;;2.13;;
24483;SDS011;12643;51.620;7.548;2022-10-16T02:37:53;6.07;;;2.30;;
24483;SDS011;12643;51.620;7.548;2022-10-16T02:40:22;7.75;;;2.08;;
24483;SDS011;12643;51.620;7.548;2022-10-16T02:42:53;2.05;;;1.85;;
24483;SDS011;12643;51.620;7.548;2022-10-16T02:45:22;3.47;;;1.80;;
24483;SDS011;12643;51.620;7.548;2022-10-16T02:47:50;3.28;;;2.00;;
24483;SDS011;12643;51.620;7.548;2022-10-16T02:50:18;2.90;;;1.98;;
24483;SDS011;12643;51.620;7.548;2022-10-16T02:52:45;2.97;;;1.95;;
24483;SDS011;12643;51.620;7.548;2022-10-16T02:55:13;4.65;;;2.13;;
24483;SDS011;12643;51.620;7.548;2022-10-16T02:57:42;2.65;;;1.90;;
24483;SDS011;12643;51.620;7.548;2022-10-16T03:00:12;4.15;;;2.10;;
24483;SDS011;12643;51.620;7.548;2022-10-16T03:02:42;2.85;;;2.10;;
24483;SDS011;12643;51.620;7.548;2022-10-16T03:05:10;2.97;;;2.13;;
24483;SDS011;12643;51.620;7.548;2022-10-16T03:07:38;3.63;;;2.00;;
24483;SDS011;12643;51.620;7.548;2022-10-16T03:10:06;4.22;;;2.20;;
24483;SDS011;12643;51.620;7.548;2022-10-16T03:12:34;3.78;;;2.08;;
24483;SDS011;12643;51.620;7.548;2022-10-16T03:15:02;5.55;;;2.22;;
24483;SDS011;12643;51.620;7.548;2022-10-16T03:17:33;4.18;;;1.77;;
24483;SDS011;12643;51.620;7.548;2022-10-16T03:20:01;3.72;;;1.92;;
24483;SDS011;12643;51.620;7.548;2022-10-16T03:22:29;5.40;;;2.00;;
24483;SDS011;12643;51.620;7.548;2022-10-16T03:24:57;3.72;;;1.90;;
24483;SDS011;12643;51.620;7.548;2022-10-16T03:27:25;2.38;;;2.17;;
24483;SDS011;12643;51.620;7.548;2022-10-16T03:29:53;4.18;;;1.88;;
24483;SDS011;12643;51.620;7.548;2022-10-16T03:32:21;3.42;;;2.13;;
24483;SDS011;12643;51.620;7.548;2022-10-16T03:34:51;2.92;;;1.60;;
24483;SDS011;12643;51.620;7.548;2022-10-16T03:37:19;4.07;;;1.70;;
24483;SDS011;12643;51.620;7.548;2022-10-16T03:39:47;2.67;;;1.73;;
24483;SDS011;12643;51.620;7.548;2022-10-16T03:42:15;2.38;;;1.80;;
24483;SDS011;12643;51.620;7.548;2022-10-16T03:44:43;1.90;;;1.58;;
24483;SDS011;12643;51.620;7.548;2022-10-16T03:47:11;6.75;;;1.73;;
24483;SDS011;12643;51.620;7.548;2022-10-16T03:49:38;2.20;;;2.00;;
24483;SDS011;12643;51.620;7.548;2022-10-16T03:52:08;5.13;;;2.30;;
24483;SDS011;12643;51.620;7.548;2022-10-16T03:54:35;3.00;;;1.83;;
24483;SDS011;12643;51.620;7.548;2022-10-16T03:57:03;1.88;;;1.42;;
24483;SDS011;12643;51.620;7.548;2022-10-16T03:59:31;1.55;;;1.17;;
24483;SDS011;12643;51.620;7.548;2022-10-16T04:01:58;3.92;;;1.95;;
24483;SDS011;12643;51.620;7.548;2022-10-16T04:04:26;5.05;;;1.52;;
24483;SDS011;12643;51.620;7.548;2022-10-16T04:06:54;2.55;;;1.60;;
24483;SDS011;12643;51.620;7.548;2022-10-16T04:09:23;3.67;;;1.67;;
24483;SDS011;12643;51.620;7.548;2022-10-16T04:11:51;4.05;;;1.38;;
24483;SDS011;12643;51.620;7.548;2022-10-16T04:14:19;3.08;;;1.30;;
24483;SDS011;12643;51.620;7.548;2022-10-16T04:16:46;2.35;;;1.42;;
24483;SDS011;12643;51.620;7.548;2022-10-16T04:19:14;2.33;;;1.17;;
24483;SDS011;12643;51.620;7.548;2022-10-16T04:21:42;1.70;;;1.60;;
24483;SDS011;12643;51.620;7.548;2022-10-16T04:24:10;1.70;;;1.20;;
24483;SDS011;12643;51.620;7.548;2022-10-16T04:26:40;3.15;;;1.70;;
24483;SDS011;12643;51.620;7.548;2022-10-16T04:29:08;1.70;;;1.30;;
24483;SDS011;12643;51.620;7.548;2022-10-16T04:31:35;1.17;;;1.08;;
24483;SDS011;12643;51.620;7.548;2022-10-16T04:34:03;2.88;;;1.30;;
24483;SDS011;12643;51.620;7.548;2022-10-16T04:36:31;2.15;;;1.58;;
24483;SDS011;12643;51.620;7.548;2022-10-16T04:38:59;2.88;;;1.67;;
24483;SDS011;12643;51.620;7.548;2022-10-16T04:41:27;1.30;;;1.20;;
24483;SDS011;12643;51.620;7.548;2022-10-16T04:43:57;2.95;;;1.30;;
24483;SDS011;12643;51.620;7.548;2022-10-16T04:46:24;1.20;;;1.10;;
24483;SDS011;12643;51.620;7.548;2022-10-16T04:48:52;2.60;;;1.58;;
24483;SDS011;12643;51.620;7.548;2022-10-16T04:51:20;3.88;;;1.27;;
24483;SDS011;12643;51.620;7.548;2022-10-16T04:53:48;1.48;;;1.20;;
24483;SDS011;12643;51.620;7.548;2022-10-16T04:56:16;1.77;;;1.40;;
24483;SDS011;12643;51.620;7.548;2022-10-16T04:58:43;2.97;;;1.67;;
24483;SDS011;12643;51.620;7.548;2022-10-16T05:01:13;1.35;;;1.25;;
24483;SDS011;12643;51.620;7.548;2022-10-16T05:03:40;1.55;;;1.45;;
24483;SDS011;12643;51.620;7.548;2022-10-16T05:06:08;4.05;;;1.42;;
24483;SDS011;12643;51.620;7.548;2022-10-16T05:08:36;2.22;;;1.20;;
24483;SDS011;12643;51.620;7.548;2022-10-16T05:11:04;2.72;;;1.15;;
24483;SDS011;12643;51.620;7.548;2022-10-16T05:13:32;1.77;;;1.38;;
24483;SDS011;12643;51.620;7.548;2022-10-16T05:15:59;1.30;;;1.17;;
24483;SDS011;12643;51.620;7.548;2022-10-16T05:18:29;2.75;;;1.20;;
24483;SDS011;12643;51.620;7.548;2022-10-16T05:20:56;1.17;;;1.05;;
24483;SDS011;12643;51.620;7.548;2022-10-16T05:23:24;1.00;;;1.00;;
24483;SDS011;12643;51.620;7.548;2022-10-16T05:25:53;1.35;;;1.25;;
24483;SDS011;12643;51.620;7.548;2022-10-16T05:28:23;1.50;;;1.30;;
24483;SDS011;12643;51.620;7.548;2022-10-16T05:30:52;2.22;;;1.30;;
24483;SDS011;12643;51.620;7.548;2022-10-16T05:33:20;2.35;;;1.30;;
24483;SDS011;12643;51.620;7.548;2022-10-16T05:35:51;3.25;;;1.40;;
24483;SDS011;12643;51.620;7.548;2022-10-16T05:38:18;3.40;;;1.05;;
24483;SDS011;12643;51.620;7.548;2022-10-16T05:40:50;3.95;;;1.30;;
24483;SDS011;12643;51.620;7.548;2022-10-16T05:43:18;4.10;;;1.33;;
24483;SDS011;12643;51.620;7.548;2022-10-16T05:45:53;3.05;;;0.95;;
24483;SDS011;12643;51.620;7.548;2022-10-16T05:48:21;1.30;;;1.15;;
24483;SDS011;12643;51.620;7.548;2022-10-16T05:50:57;2.25;;;1.50;;
24483;SDS011;12643;51.620;7.548;2022-10-16T05:53:26;3.05;;;1.38;;
24483;SDS011;12643;51.620;7.548;2022-10-16T05:55:55;2.88;;;1.23;;
24483;SDS011;12643;51.620;7.548;2022-10-16T05:58:24;1.20;;;1.10;;
24483;SDS011;12643;51.620;7.548;2022-10-16T06:00:53;1.52;;;1.05;;
24483;SDS011;12643;51.620;7.548;2022-10-16T06:03:21;1.35;;;1.10;;
24483;SDS011;12643;51.620;7.548;2022-10-16T06:05:49;3.25;;;1.52;;
24483;SDS011;12643;51.620;7.548;2022-10-16T06:08:19;1.45;;;1.27;;
24483;SDS011;12643;51.620;7.548;2022-10-16T06:10:48;7.03;;;1.88;;
24483;SDS011;12643;51.620;7.548;2022-10-16T06:13:26;1.45;;;1.30;;
24483;SDS011;12643;51.620;7.548;2022-10-16T06:15:56;2.35;;;1.35;;
24483;SDS011;12643;51.620;7.548;2022-10-16T06:18:24;2.58;;;1.80;;
24483;SDS011;12643;51.620;7.548;2022-10-16T06:20:53;4.78;;;1.20;;
24483;SDS011;12643;51.620;7.548;2022-10-16T06:23:22;2.00;;;1.30;;
24483;SDS011;12643;51.620;7.548;2022-10-16T06:25:50;2.88;;;1.50;;
24483;SDS011;12643;51.620;7.548;2022-10-16T06:28:19;4.07;;;1.48;;
24483;SDS011;12643;51.620;7.548;2022-10-16T06:30:47;1.30;;;1.20;;
24483;SDS011;12643;51.620;7.548;2022-10-16T06:33:14;2.92;;;1.30;;
24483;SDS011;12643;51.620;7.548;2022-10-16T06:35:42;1.30;;;1.20;;
24483;SDS011;12643;51.620;7.548;2022-10-16T06:38:11;1.35;;;1.23;;
24483;SDS011;12643;51.620;7.548;2022-10-16T06:40:40;4.05;;;1.40;;
24483;SDS011;12643;51.620;7.548;2022-10-16T06:43:08;3.80;;;1.45;;
24483;SDS011;12643;51.620;7.548;2022-10-16T06:45:36;4.15;;;1.40;;
24483;SDS011;12643;51.620;7.548;2022-10-16T06:48:04;1.42;;;1.33;;
24483;SDS011;12643;51.620;7.548;2022-10-16T06:50:33;9.25;;;1.85;;
24483;SDS011;12643;51.620;7.548;2022-10-16T06:53:01;3.85;;;1.45;;
24483;SDS011;12643;51.620;7.548;2022-10-16T06:55:29;2.15;;;1.45;;
24483;SDS011;12643;51.620;7.548;2022-10-16T06:57:59;1.55;;;1.30;;
24483;SDS011;12643;51.620;7.548;2022-10-16T07:00:27;1.98;;;1.23;;
24483;SDS011;12643;51.620;7.548;2022-10-16T07:02:57;1.83;;;1.30;;
24483;SDS011;12643;51.620;7.548;2022-10-16T07:05:25;4.07;;;1.50;;
24483;SDS011;12643;51.620;7.548;2022-10-16T07:07:52;2.17;;;1.52;;
24483;SDS011;12643;51.620;7.548;2022-10-16T07:10:20;2.72;;;1.63;;
24483;SDS011;12643;51.620;7.548;2022-10-16T07:12:49;1.90;;;1.40;;
24483;SDS011;12643;51.620;7.548;2022-10-16T07:15:18;3.42;;;1.45;;
24483;SDS011;12643;51.620;7.548;2022-10-16T07:17:46;3.47;;;1.50;;
24483;SDS011;12643;51.620;7.548;2022-10-16T07:20:14;1.92;;;1.30;;
24483;SDS011;12643;51.620;7.548;2022-10-16T07:22:47;1.63;;;1.38;;
24483;SDS011;12643;51.620;7.548;2022-10-16T07:25:15;1.50;;;1.15;;
24483;SDS011;12643;51.620;7.548;2022-10-16T07:27:43;7.75;;;1.65;;
24483;SDS011;12643;51.620;7.548;2022-10-16T07:30:10;3.03;;;1.40;;
24483;SDS011;12643;51.620;7.548;2022-10-16T07:32:41;2.65;;;1.40;;
24483;SDS011;12643;51.620;7.548;2022-10-16T07:35:09;1.88;;;1.63;;
24483;SDS011;12643;51.620;7.548;2022-10-16T07:37:37;2.25;;;1.60;;
24483;SDS011;12643;51.620;7.548;2022-10-16T07:40:06;2.30;;;1.92;;
24483;SDS011;12643;51.620;7.548;2022-10-16T07:42:34;1.27;;;1.17;;
24483;SDS011;12643;51.620;7.548;2022-10-16T07:45:02;3.63;;;1.67;;
24483;SDS011;12643;51.620;7.548;2022-10-16T07:47:31;2.95;;;1.73;;
24483;SDS011;12643;51.620;7.548;2022-10-16T07:50:00;2.28;;;1.30;;
24483;SDS011;12643;51.620;7.548;2022-10-16T07:52:28;2.55;;;1.60;;
24483;SDS011;12643;51.620;7.548;2022-10-16T07:54:56;6.55;;;1.60;;
24483;SDS011;12643;51.620;7.548;2022-10-16T07:57:23;1.80;;;1.55;;
24483;SDS011;12643;51.620;7.548;2022-10-16T07:59:51;3.13;;;1.80;;
24483;SDS011;12643;51.620;7.548;2022-10-16T08:02:19;1.73;;;1.50;;
24483;SDS011;12643;51.620;7.548;2022-10-16T08:04:47;3.78;;;1.75;;
24483;SDS011;12643;51.620;7.548;2022-10-16T08:07:17;4.13;;;1.70;;
24483;SDS011;12643;51.620;7.548;2022-10-16T08:09:44;5.00;;;1.80;;
24483;SDS011;12643;51.620;7.548;2022-10-16T08:12:17;6.38;;;2.00;;
24483;SDS011;12643;51.620;7.548;2022-10-16T08:14:45;4.38;;;1.73;;
24483;SDS011;12643;51.620;7.548;2022-10-16T08:17:13;4.25;;;1.73;;
24483;SDS011;12643;51.620;7.548;2022-10-16T08:19:43;5.25;;;1.83;;
24483;SDS011;12643;51.620;7.548;2022-10-16T08:22:14;3.60;;;1.67;;
24483;SDS011;12643;51.620;7.548;2022-10-16T08:24:44;1.45;;;1.35;;
24483;SDS011;12643;51.620;7.548;2022-10-16T08:32:59;5.65;;;2.15;;
24483;SDS011;12643;51.620;7.548;2022-10-16T08:35:27;4.15;;;1.70;;
24483;SDS011;12643;51.620;7.548;2022-10-16T08:37:56;2.75;;;1.55;;
24483;SDS011;12643;51.620;7.548;2022-10-16T08:40:25;4.40;;;1.70;;
24483;SDS011;12643;51.620;7.548;2022-10-16T08:43:00;6.97;;;2.00;;
24483;SDS011;12643;51.620;7.548;2022-10-16T08:46:02;3.45;;;2.15;;
24483;SDS011;12643;51.620;7.548;2022-10-16T08:48:43;1.58;;;1.40;;
24483;SDS011;12643;51.620;7.548;2022-10-16T08:51:16;4.20;;;1.50;;
24483;SDS011;12643;51.620;7.548;2022-10-16T08:53:50;2.28;;;1.38;;
24483;SDS011;12643;51.620;7.548;2022-10-16T08:56:22;3.90;;;1.50;;
24483;SDS011;12643;51.620;7.548;2022-10-16T08:58:51;4.55;;;1.35;;
24483;SDS011;12643;51.620;7.548;2022-10-16T09:01:21;3.97;;;1.45;;
24483;SDS011;12643;51.620;7.548;2022-10-16T09:03:54;2.22;;;1.33;;
24483;SDS011;12643;51.620;7.548;2022-10-16T09:06:43;2.55;;;1.65;;
24483;SDS011;12643;51.620;7.548;2022-10-16T09:12:16;6.15;;;1.25;;
24483;SDS011;12643;51.620;7.548;2022-10-16T09:14:52;2.42;;;1.10;;
24483;SDS011;12643;51.620;7.548;2022-10-16T09:17:28;2.92;;;1.10;;
24483;SDS011;12643;51.620;7.548;2022-10-16T09:20:08;7.97;;;3.05;;
24483;SDS011;12643;51.620;7.548;2022-10-16T09:22:43;3.80;;;1.58;;
24483;SDS011;12643;51.620;7.548;2022-10-16T09:25:13;9.10;;;1.80;;
24483;SDS011;12643;51.620;7.548;2022-10-16T09:27:42;3.80;;;1.52;;
24483;SDS011;12643;51.620;7.548;2022-10-16T09:30:12;3.17;;;1.65;;
24483;SDS011;12643;51.620;7.548;2022-10-16T09:32:42;4.70;;;1.30;;
24483;SDS011;12643;51.620;7.548;2022-10-16T09:35:13;3.03;;;1.52;;
24483;SDS011;12643;51.620;7.548;2022-10-16T09:37:43;4.53;;;1.63;;
24483;SDS011;12643;51.620;7.548;2022-10-16T09:40:25;6.80;;;2.00;;
24483;SDS011;12643;51.620;7.548;2022-10-16T09:42:56;3.35;;;1.40;;
24483;SDS011;12643;51.620;7.548;2022-10-16T09:45:28;4.18;;;1.40;;
24483;SDS011;12643;51.620;7.548;2022-10-16T09:47:56;7.35;;;2.03;;
24483;SDS011;12643;51.620;7.548;2022-10-16T09:50:25;3.90;;;1.55;;
24483;SDS011;12643;51.620;7.548;2022-10-16T09:53:03;5.07;;;1.48;;
24483;SDS011;12643;51.620;7.548;2022-10-16T09:55:33;4.63;;;1.10;;
24483;SDS011;12643;51.620;7.548;2022-10-16T09:58:01;3.90;;;1.20;;
24483;SDS011;12643;51.620;7.548;2022-10-16T10:00:29;3.45;;;1.50;;
24483;SDS011;12643;51.620;7.548;2022-10-16T10:02:57;6.15;;;1.70;;
24483;SDS011;12643;51.620;7.548;2022-10-16T10:05:26;5.78;;;2.10;;
24483;SDS011;12643;51.620;7.548;2022-10-16T10:07:56;3.90;;;1.42;;
24483;SDS011;12643;51.620;7.548;2022-10-16T10:10:26;2.60;;;1.17;;
24483;SDS011;12643;51.620;7.548;2022-10-16T10:12:57;2.65;;;1.25;;
24483;SDS011;12643;51.620;7.548;2022-10-16T10:15:25;2.88;;;1.42;;
24483;SDS011;12643;51.620;7.548;2022-10-16T10:17:56;6.57;;;1.35;;
24483;SDS011;12643;51.620;7.548;2022-10-16T10:20:26;6.50;;;1.30;;
24483;SDS011;12643;51.620;7.548;2022-10-16T10:22:55;2.75;;;1.05;;
24483;SDS011;12643;51.620;7.548;2022-10-16T10:28:27;4.13;;;1.08;;
24483;SDS011;12643;51.620;7.548;2022-10-16T10:31:20;3.38;;;1.33;;
24483;SDS011;12643;51.620;7.548;2022-10-16T10:33:53;11.38;;;1.70;;
24483;SDS011;12643;51.620;7.548;2022-10-16T10:36:29;4.85;;;1.30;;
24483;SDS011;12643;51.620;7.548;2022-10-16T10:39:00;3.30;;;1.20;;
24483;SDS011;12643;51.620;7.548;2022-10-16T10:41:55;7.90;;;1.60;;
24483;SDS011;12643;51.620;7.548;2022-10-16T10:44:40;6.03;;;1.42;;
24483;SDS011;12643;51.620;7.548;2022-10-16T10:47:23;5.05;;;1.63;;
24483;SDS011;12643;51.620;7.548;2022-10-16T10:50:02;3.30;;;1.25;;
24483;SDS011;12643;51.620;7.548;2022-10-16T10:52:40;3.35;;;0.98;;
24483;SDS011;12643;51.620;7.548;2022-10-16T10:55:17;2.78;;;1.00;;
24483;SDS011;12643;51.620;7.548;2022-10-16T10:57:59;5.25;;;1.23;;
24483;SDS011;12643;51.620;7.548;2022-10-16T11:00:44;3.40;;;0.82;;
24483;SDS011;12643;51.620;7.548;2022-10-16T11:03:22;1.85;;;0.90;;
24483;SDS011;12643;51.620;7.548;2022-10-16T11:06:01;4.45;;;1.00;;
24483;SDS011;12643;51.620;7.548;2022-10-16T11:08:35;4.28;;;1.27;;
24483;SDS011;12643;51.620;7.548;2022-10-16T11:11:08;4.78;;;1.05;;
24483;SDS011;12643;51.620;7.548;2022-10-16T11:13:42;4.80;;;1.20;;
24483;SDS011;12643;51.620;7.548;2022-10-16T11:16:18;1.45;;;0.90;;
24483;SDS011;12643;51.620;7.548;2022-10-16T11:18:49;2.92;;;0.95;;
24483;SDS011;12643;51.620;7.548;2022-10-16T11:21:23;2.33;;;1.00;;
24483;SDS011;12643;51.620;7.548;2022-10-16T11:23:53;2.42;;;0.95;;
24483;SDS011;12643;51.620;7.548;2022-10-16T11:26:28;2.42;;;1.35;;
24483;SDS011;12643;51.620;7.548;2022-10-16T11:28:59;2.33;;;0.93;;
24483;SDS011;12643;51.620;7.548;2022-10-16T11:31:32;3.53;;;0.90;;
24483;SDS011;12643;51.620;7.548;2022-10-16T11:34:05;3.03;;;0.95;;
24483;SDS011;12643;51.620;7.548;2022-10-16T11:36:42;2.53;;;0.80;;
24483;SDS011;12643;51.620;7.548;2022-10-16T11:39:19;2.13;;;0.80;;
24483;SDS011;12643;51.620;7.548;2022-10-16T11:41:49;2.97;;;0.98;;
24483;SDS011;12643;51.620;7.548;2022-10-16T11:44:28;3.75;;;1.27;;
24483;SDS011;12643;51.620;7.548;2022-10-16T11:47:12;1.17;;;0.88;;
24483;SDS011;12643;51.620;7.548;2022-10-16T11:49:47;1.52;;;0.80;;
24483;SDS011;12643;51.620;7.548;2022-10-16T11:52:20;2.55;;;0.85;;
24483;SDS011;12643;51.620;7.548;2022-10-16T11:54:54;5.00;;;1.20;;
24483;SDS011;12643;51.620;7.548;2022-10-16T11:57:26;1.10;;;0.90;;
24483;SDS011;12643;51.620;7.548;2022-10-16T11:59:58;3.35;;;0.90;;
24483;SDS011;12643;51.620;7.548;2022-10-16T12:02:35;3.08;;;1.20;;
24483;SDS011;12643;51.620;7.548;2022-10-16T12:05:15;5.45;;;1.20;;
24483;SDS011;12643;51.620;7.548;2022-10-16T12:07:51;2.97;;;1.45;;
24483;SDS011;12643;51.620;7.548;2022-10-16T12:10:24;2.50;;;1.00;;
24483;SDS011;12643;51.620;7.548;2022-10-16T12:12:54;2.22;;;1.05;;
24483;SDS011;12643;51.620;7.548;2022-10-16T12:15:24;2.33;;;1.52;;
24483;SDS011;12643;51.620;7.548;2022-10-16T12:17:55;4.07;;;1.27;;
24483;SDS011;12643;51.620;7.548;2022-10-16T12:20:24;1.42;;;0.90;;
24483;SDS011;12643;51.620;7.548;2022-10-16T12:22:56;8.38;;;1.35;;
24483;SDS011;12643;51.620;7.548;2022-10-16T12:25:26;3.65;;;1.65;;
24483;SDS011;12643;51.620;7.548;2022-10-16T12:27:57;2.45;;;1.27;;
24483;SDS011;12643;51.620;7.548;2022-10-16T12:30:30;3.05;;;1.35;;
24483;SDS011;12643;51.620;7.548;2022-10-16T12:33:01;2.30;;;1.05;;
24483;SDS011;12643;51.620;7.548;2022-10-16T12:35:32;2.08;;;0.90;;
24483;SDS011;12643;51.620;7.548;2022-10-16T12:38:12;5.65;;;1.40;;
24483;SDS011;12643;51.620;7.548;2022-10-16T12:40:44;3.60;;;0.98;;
24483;SDS011;12643;51.620;7.548;2022-10-16T12:43:24;4.28;;;1.25;;
24483;SDS011;12643;51.620;7.548;2022-10-16T12:46:04;5.43;;;1.08;;
24483;SDS011;12643;51.620;7.548;2022-10-16T12:48:48;5.85;;;1.20;;
24483;SDS011;12643;51.620;7.548;2022-10-16T12:51:34;1.10;;;0.80;;
24483;SDS011;12643;51.620;7.548;2022-10-16T12:54:04;2.58;;;1.00;;
24483;SDS011;12643;51.620;7.548;2022-10-16T12:56:41;2.60;;;0.88;;
24483;SDS011;12643;51.620;7.548;2022-10-16T12:59:16;1.33;;;0.95;;
24483;SDS011;12643;51.620;7.548;2022-10-16T13:01:56;3.80;;;0.88;;
24483;SDS011;12643;51.620;7.548;2022-10-16T13:04:52;2.63;;;0.93;;
24483;SDS011;12643;51.620;7.548;2022-10-16T13:07:40;1.50;;;0.80;;
24483;SDS011;12643;51.620;7.548;2022-10-16T13:10:15;2.70;;;1.08;;
24483;SDS011;12643;51.620;7.548;2022-10-16T13:13:00;3.17;;;0.98;;
24483;SDS011;12643;51.620;7.548;2022-10-16T13:15:48;4.00;;;0.80;;
24483;SDS011;12643;51.620;7.548;2022-10-16T13:18:25;2.17;;;0.90;;
24483;SDS011;12643;51.620;7.548;2022-10-16T13:21:09;1.88;;;0.90;;
24483;SDS011;12643;51.620;7.548;2022-10-16T13:23:47;2.83;;;1.10;;
24483;SDS011;12643;51.620;7.548;2022-10-16T13:26:23;7.75;;;4.35;;
24483;SDS011;12643;51.620;7.548;2022-10-16T13:29:00;8.13;;;3.78;;
24483;SDS011;12643;51.620;7.548;2022-10-16T13:31:29;6.40;;;3.38;;
24483;SDS011;12643;51.620;7.548;2022-10-16T13:33:59;2.35;;;1.40;;
24483;SDS011;12643;51.620;7.548;2022-10-16T13:36:29;3.28;;;0.90;;
24483;SDS011;12643;51.620;7.548;2022-10-16T13:39:09;0.65;;;0.60;;
24483;SDS011;12643;51.620;7.548;2022-10-16T13:41:38;7.47;;;0.85;;
24483;SDS011;12643;51.620;7.548;2022-10-16T13:44:11;2.05;;;0.70;;
24483;SDS011;12643;51.620;7.548;2022-10-16T13:46:41;1.58;;;0.75;;
24483;SDS011;12643;51.620;7.548;2022-10-16T13:49:13;1.58;;;0.60;;
24483;SDS011;12643;51.620;7.548;2022-10-16T13:51:53;4.22;;;1.05;;
24483;SDS011;12643;51.620;7.548;2022-10-16T13:54:22;2.42;;;0.90;;
24483;SDS011;12643;51.620;7.548;2022-10-16T13:56:50;2.30;;;0.82;;
24483;SDS011;12643;51.620;7.548;2022-10-16T13:59:22;1.85;;;0.60;;
24483;SDS011;12643;51.620;7.548;2022-10-16T14:01:51;1.60;;;0.88;;
24483;SDS011;12643;51.620;7.548;2022-10-16T14:04:20;2.53;;;0.88;;
24483;SDS011;12643;51.620;7.548;2022-10-16T14:06:51;3.17;;;1.17;;
24483;SDS011;12643;51.620;7.548;2022-10-16T14:09:21;4.25;;;0.90;;
24483;SDS011;12643;51.620;7.548;2022-10-16T14:11:52;2.15;;;0.70;;
24483;SDS011;12643;51.620;7.548;2022-10-16T14:14:22;4.30;;;0.67;;
24483;SDS011;12643;51.620;7.548;2022-10-16T14:16:51;1.50;;;0.70;;
24483;SDS011;12643;51.620;7.548;2022-10-16T14:19:20;4.35;;;0.90;;
24483;SDS011;12643;51.620;7.548;2022-10-16T14:21:52;1.40;;;0.80;;
24483;SDS011;12643;51.620;7.548;2022-10-16T14:24:24;3.65;;;1.00;;
24483;SDS011;12643;51.620;7.548;2022-10-16T14:26:57;4.53;;;0.95;;
24483;SDS011;12643;51.620;7.548;2022-10-16T14:29:26;1.70;;;0.90;;
24483;SDS011;12643;51.620;7.548;2022-10-16T14:31:57;1.77;;;1.23;;
24483;SDS011;12643;51.620;7.548;2022-10-16T14:34:27;3.30;;;1.05;;
24483;SDS011;12643;51.620;7.548;2022-10-16T14:37:00;1.75;;;0.70;;
24483;SDS011;12643;51.620;7.548;2022-10-16T14:39:32;5.93;;;0.90;;
24483;SDS011;12643;51.620;7.548;2022-10-16T14:42:00;2.78;;;1.10;;
24483;SDS011;12643;51.620;7.548;2022-10-16T14:44:31;3.00;;;0.80;;
24483;SDS011;12643;51.620;7.548;2022-10-16T14:47:06;1.52;;;0.60;;
24483;SDS011;12643;51.620;7.548;2022-10-16T14:49:35;2.50;;;0.63;;
24483;SDS011;12643;51.620;7.548;2022-10-16T14:52:07;2.03;;;1.00;;
24483;SDS011;12643;51.620;7.548;2022-10-16T14:54:36;2.28;;;1.15;;
24483;SDS011;12643;51.620;7.548;2022-10-16T14:57:04;1.98;;;0.90;;
24483;SDS011;12643;51.620;7.548;2022-10-16T14:59:41;2.97;;;0.93;;
24483;SDS011;12643;51.620;7.548;2022-10-16T15:02:15;3.90;;;0.88;;
24483;SDS011;12643;51.620;7.548;2022-10-16T15:04:47;1.00;;;0.70;;
24483;SDS011;12643;51.620;7.548;2022-10-16T15:07:16;2.15;;;0.80;;
24483;SDS011;12643;51.620;7.548;2022-10-16T15:09:44;1.95;;;0.70;;
24483;SDS011;12643;51.620;7.548;2022-10-16T15:12:12;2.35;;;1.08;;
24483;SDS011;12643;51.620;7.548;2022-10-16T15:14:40;2.40;;;0.82;;
24483;SDS011;12643;51.620;7.548;2022-10-16T15:17:08;2.92;;;0.70;;
24483;SDS011;12643;51.620;7.548;2022-10-16T15:19:37;1.52;;;0.70;;
24483;SDS011;12643;51.620;7.548;2022-10-16T15:22:05;0.95;;;0.65;;
24483;SDS011;12643;51.620;7.548;2022-10-16T15:24:34;0.93;;;0.60;;